sensor_id;sensor_type;location;lat;lon;timestamp;pressure;altitude;pressure_sealevel;temperature
68911;BMP180;55953;51.650;-0.522;2022-07-19T00:00:18;100730.80;;;22.48
68911;BMP180;55953;51.650;-0.522;2022-07-19T00:03:02;100733.60;;;22.50
68911;BMP180;55953;51.650;-0.522;2022-07-19T00:05:30;100729.40;;;22.50
68911;BMP180;55953;51.650;-0.522;2022-07-19T00:07:58;100730.80;;;22.40
68911;BMP180;55953;51.650;-0.522;2022-07-19T00:10:26;100728.00;;;22.30
68911;BMP180;55953;51.650;-0.522;2022-07-19T00:12:54;100729.20;;;22.20
68911;BMP180;55953;51.650;-0.522;2022-07-19T00:15:22;100723.80;;;22.20
68911;BMP180;55953;51.650;-0.522;2022-07-19T00:17:50;100722.60;;;22.10
68911;BMP180;55953;51.650;-0.522;2022-07-19T00:20:22;100721.00;;;22.08
68911;BMP180;55953;51.650;-0.522;2022-07-19T00:22:50;100720.20;;;22.00
68911;BMP180;55953;51.650;-0.522;2022-07-19T00:25:19;100712.60;;;22.00
68911;BMP180;55953;51.650;-0.522;2022-07-19T00:27:47;100712.40;;;22.00
68911;BMP180;55953;51.650;-0.522;2022-07-19T00:30:15;100709.00;;;22.00
68911;BMP180;55953;51.650;-0.522;2022-07-19T00:32:42;100707.00;;;21.90
68911;BMP180;55953;51.650;-0.522;2022-07-19T00:35:11;100704.20;;;21.80
68911;BMP180;55953;51.650;-0.522;2022-07-19T00:37:39;100705.80;;;21.74
68911;BMP180;55953;51.650;-0.522;2022-07-19T00:40:24;100701.20;;;21.70
68911;BMP180;55953;51.650;-0.522;2022-07-19T00:42:52;100699.00;;;21.70
68911;BMP180;55953;51.650;-0.522;2022-07-19T00:45:20;100696.00;;;21.80
68911;BMP180;55953;51.650;-0.522;2022-07-19T00:47:48;100693.80;;;21.70
68911;BMP180;55953;51.650;-0.522;2022-07-19T00:50:17;100693.20;;;21.70
68911;BMP180;55953;51.650;-0.522;2022-07-19T00:52:51;100696.40;;;21.60
68911;BMP180;55953;51.650;-0.522;2022-07-19T00:55:22;100690.80;;;21.60
68911;BMP180;55953;51.650;-0.522;2022-07-19T00:57:50;100688.60;;;21.50
68911;BMP180;55953;51.650;-0.522;2022-07-19T01:00:18;100680.60;;;21.42
68911;BMP180;55953;51.650;-0.522;2022-07-19T01:02:47;100679.60;;;21.40
68911;BMP180;55953;51.650;-0.522;2022-07-19T01:05:16;100679.20;;;21.32
68911;BMP180;55953;51.650;-0.522;2022-07-19T01:07:45;100673.80;;;21.40
68911;BMP180;55953;51.650;-0.522;2022-07-19T01:10:14;100675.60;;;21.40
68911;BMP180;55953;51.650;-0.522;2022-07-19T01:12:43;100675.40;;;21.30
68911;BMP180;55953;51.650;-0.522;2022-07-19T01:15:24;100668.40;;;21.30
68911;BMP180;55953;51.650;-0.522;2022-07-19T01:17:55;100673.80;;;21.30
68911;BMP180;55953;51.650;-0.522;2022-07-19T01:20:24;100669.00;;;21.30
68911;BMP180;55953;51.650;-0.522;2022-07-19T01:22:57;100663.60;;;21.30
68911;BMP180;55953;51.650;-0.522;2022-07-19T01:25:31;100657.80;;;21.20
68911;BMP180;55953;51.650;-0.522;2022-07-19T01:28:02;100658.00;;;21.20
68911;BMP180;55953;51.650;-0.522;2022-07-19T01:30:30;100659.20;;;21.20
68911;BMP180;55953;51.650;-0.522;2022-07-19T01:32:58;100652.60;;;21.12
68911;BMP180;55953;51.650;-0.522;2022-07-19T01:35:27;100654.20;;;21.20
68911;BMP180;55953;51.650;-0.522;2022-07-19T01:37:56;100654.60;;;21.20
68911;BMP180;55953;51.650;-0.522;2022-07-19T01:40:24;100654.00;;;21.10
68911;BMP180;55953;51.650;-0.522;2022-07-19T01:42:53;100654.20;;;21.10
68911;BMP180;55953;51.650;-0.522;2022-07-19T01:45:21;100651.80;;;21.10
68911;BMP180;55953;51.650;-0.522;2022-07-19T01:47:49;100652.20;;;21.10
68911;BMP180;55953;51.650;-0.522;2022-07-19T01:50:17;100653.60;;;21.10
68911;BMP180;55953;51.650;-0.522;2022-07-19T01:52:45;100650.80;;;21.20
68911;BMP180;55953;51.650;-0.522;2022-07-19T01:55:19;100648.40;;;21.10
68911;BMP180;55953;51.650;-0.522;2022-07-19T01:57:48;100646.20;;;21.16
68911;BMP180;55953;51.650;-0.522;2022-07-19T02:00:17;100641.00;;;21.14
68911;BMP180;55953;51.650;-0.522;2022-07-19T02:02:45;100636.20;;;21.10
68911;BMP180;55953;51.650;-0.522;2022-07-19T02:05:13;100633.80;;;21.10
68911;BMP180;55953;51.650;-0.522;2022-07-19T02:07:46;100633.60;;;21.10
68911;BMP180;55953;51.650;-0.522;2022-07-19T02:10:15;100627.80;;;21.06
68911;BMP180;55953;51.650;-0.522;2022-07-19T02:12:43;100628.20;;;21.00
68911;BMP180;55953;51.650;-0.522;2022-07-19T02:15:10;100623.60;;;21.00
68911;BMP180;55953;51.650;-0.522;2022-07-19T02:17:38;100625.20;;;20.90
68911;BMP180;55953;51.650;-0.522;2022-07-19T02:20:07;100626.00;;;20.80
68911;BMP180;55953;51.650;-0.522;2022-07-19T02:22:35;100623.20;;;20.80
68911;BMP180;55953;51.650;-0.522;2022-07-19T02:25:04;100626.80;;;20.74
68911;BMP180;55953;51.650;-0.522;2022-07-19T02:27:32;100625.40;;;20.76
68911;BMP180;55953;51.650;-0.522;2022-07-19T02:30:00;100623.20;;;20.80
68911;BMP180;55953;51.650;-0.522;2022-07-19T02:32:28;100618.20;;;20.70
68911;BMP180;55953;51.650;-0.522;2022-07-19T02:34:56;100621.40;;;20.70
68911;BMP180;55953;51.650;-0.522;2022-07-19T02:37:24;100615.80;;;20.70
68911;BMP180;55953;51.650;-0.522;2022-07-19T02:39:52;100618.40;;;20.70
68911;BMP180;55953;51.650;-0.522;2022-07-19T02:42:19;100612.00;;;20.70
68911;BMP180;55953;51.650;-0.522;2022-07-19T02:44:47;100607.20;;;20.66
68911;BMP180;55953;51.650;-0.522;2022-07-19T02:47:15;100609.40;;;20.60
68911;BMP180;55953;51.650;-0.522;2022-07-19T02:49:43;100607.80;;;20.60
68911;BMP180;55953;51.650;-0.522;2022-07-19T02:52:11;100605.20;;;20.60
68911;BMP180;55953;51.650;-0.522;2022-07-19T02:54:39;100599.80;;;20.50
68911;BMP180;55953;51.650;-0.522;2022-07-19T02:57:07;100602.80;;;20.40
68911;BMP180;55953;51.650;-0.522;2022-07-19T02:59:35;100599.00;;;20.38
68911;BMP180;55953;51.650;-0.522;2022-07-19T03:02:02;100597.20;;;20.40
68911;BMP180;55953;51.650;-0.522;2022-07-19T03:04:30;100598.80;;;20.40
68911;BMP180;55953;51.650;-0.522;2022-07-19T03:06:58;100591.00;;;20.30
68911;BMP180;55953;51.650;-0.522;2022-07-19T03:09:26;100591.00;;;20.40
68911;BMP180;55953;51.650;-0.522;2022-07-19T03:11:53;100586.80;;;20.30
68911;BMP180;55953;51.650;-0.522;2022-07-19T03:14:21;100586.00;;;20.22
68911;BMP180;55953;51.650;-0.522;2022-07-19T03:16:49;100581.60;;;20.20
68911;BMP180;55953;51.650;-0.522;2022-07-19T03:19:17;100583.40;;;20.10
68911;BMP180;55953;51.650;-0.522;2022-07-19T03:21:45;100577.40;;;20.04
68911;BMP180;55953;51.650;-0.522;2022-07-19T03:24:13;100575.20;;;20.00
68911;BMP180;55953;51.650;-0.522;2022-07-19T03:26:40;100574.80;;;20.02
68911;BMP180;55953;51.650;-0.522;2022-07-19T03:29:10;100568.40;;;20.10
68911;BMP180;55953;51.650;-0.522;2022-07-19T03:31:37;100567.00;;;20.00
68911;BMP180;55953;51.650;-0.522;2022-07-19T03:34:06;100566.80;;;19.90
68911;BMP180;55953;51.650;-0.522;2022-07-19T03:36:33;100563.60;;;19.90
68911;BMP180;55953;51.650;-0.522;2022-07-19T03:39:01;100556.20;;;19.90
68911;BMP180;55953;51.650;-0.522;2022-07-19T03:41:30;100556.60;;;19.90
68911;BMP180;55953;51.650;-0.522;2022-07-19T03:43:58;100555.80;;;19.92
68911;BMP180;55953;51.650;-0.522;2022-07-19T03:46:25;100556.00;;;19.90
68911;BMP180;55953;51.650;-0.522;2022-07-19T03:48:56;100554.40;;;19.90
68911;BMP180;55953;51.650;-0.522;2022-07-19T03:51:24;100553.60;;;19.90
68911;BMP180;55953;51.650;-0.522;2022-07-19T03:53:52;100551.60;;;19.90
68911;BMP180;55953;51.650;-0.522;2022-07-19T03:56:20;100552.00;;;19.90
68911;BMP180;55953;51.650;-0.522;2022-07-19T03:58:49;100548.60;;;19.90
68911;BMP180;55953;51.650;-0.522;2022-07-19T04:01:17;100548.20;;;19.90
68911;BMP180;55953;51.650;-0.522;2022-07-19T04:03:50;100550.60;;;19.90
68911;BMP180;55953;51.650;-0.522;2022-07-19T04:06:18;100549.80;;;19.90
68911;BMP180;55953;51.650;-0.522;2022-07-19T04:08:46;100547.00;;;19.86
68911;BMP180;55953;51.650;-0.522;2022-07-19T04:11:13;100543.40;;;19.90
68911;BMP180;55953;51.650;-0.522;2022-07-19T04:13:41;100542.60;;;19.84
68911;BMP180;55953;51.650;-0.522;2022-07-19T04:16:09;100537.60;;;19.88
68911;BMP180;55953;51.650;-0.522;2022-07-19T04:18:37;100534.40;;;19.90
68911;BMP180;55953;51.650;-0.522;2022-07-19T04:21:06;100532.60;;;19.88
68911;BMP180;55953;51.650;-0.522;2022-07-19T04:23:34;100528.40;;;19.90
68911;BMP180;55953;51.650;-0.522;2022-07-19T04:26:02;100527.60;;;19.90
68911;BMP180;55953;51.650;-0.522;2022-07-19T04:28:30;100526.60;;;19.86
68911;BMP180;55953;51.650;-0.522;2022-07-19T04:30:58;100525.20;;;19.90
68911;BMP180;55953;51.650;-0.522;2022-07-19T04:33:26;100525.80;;;19.84
68911;BMP180;55953;51.650;-0.522;2022-07-19T04:35:54;100523.80;;;19.90
68911;BMP180;55953;51.650;-0.522;2022-07-19T04:38:22;100521.20;;;19.90
68911;BMP180;55953;51.650;-0.522;2022-07-19T04:40:50;100520.60;;;20.00
68911;BMP180;55953;51.650;-0.522;2022-07-19T04:43:26;100516.60;;;20.00
68911;BMP180;55953;51.650;-0.522;2022-07-19T04:45:54;100516.00;;;20.10
68911;BMP180;55953;51.650;-0.522;2022-07-19T04:48:21;100510.80;;;20.10
68911;BMP180;55953;51.650;-0.522;2022-07-19T04:50:49;100511.40;;;20.18
68911;BMP180;55953;51.650;-0.522;2022-07-19T04:53:17;100506.60;;;20.24
68911;BMP180;55953;51.650;-0.522;2022-07-19T04:55:45;100502.80;;;20.28
68911;BMP180;55953;51.650;-0.522;2022-07-19T04:58:13;100503.00;;;20.30
68911;BMP180;55953;51.650;-0.522;2022-07-19T05:00:41;100499.40;;;20.28
68911;BMP180;55953;51.650;-0.522;2022-07-19T05:03:09;100500.60;;;20.30
68911;BMP180;55953;51.650;-0.522;2022-07-19T05:05:37;100497.00;;;20.30
68911;BMP180;55953;51.650;-0.522;2022-07-19T05:08:04;100503.40;;;20.50
68911;BMP180;55953;51.650;-0.522;2022-07-19T05:10:32;100494.20;;;20.40
68911;BMP180;55953;51.650;-0.522;2022-07-19T05:13:00;100493.80;;;20.44
68911;BMP180;55953;51.650;-0.522;2022-07-19T05:15:28;100490.60;;;20.52
68911;BMP180;55953;51.650;-0.522;2022-07-19T05:17:56;100491.40;;;20.60
68911;BMP180;55953;51.650;-0.522;2022-07-19T05:20:24;100488.40;;;20.70
68911;BMP180;55953;51.650;-0.522;2022-07-19T05:22:51;100491.00;;;20.70
68911;BMP180;55953;51.650;-0.522;2022-07-19T05:25:19;100491.80;;;20.80
68911;BMP180;55953;51.650;-0.522;2022-07-19T05:27:47;100493.80;;;20.90
68911;BMP180;55953;51.650;-0.522;2022-07-19T05:30:15;100487.40;;;21.00
68911;BMP180;55953;51.650;-0.522;2022-07-19T05:32:43;100490.80;;;21.06
68911;BMP180;55953;51.650;-0.522;2022-07-19T05:35:11;100486.60;;;21.10
68911;BMP180;55953;51.650;-0.522;2022-07-19T05:37:38;100491.80;;;21.10
68911;BMP180;55953;51.650;-0.522;2022-07-19T05:40:07;100489.40;;;21.20
68911;BMP180;55953;51.650;-0.522;2022-07-19T05:42:35;100483.80;;;21.32
68911;BMP180;55953;51.650;-0.522;2022-07-19T05:45:03;100483.00;;;21.40
68911;BMP180;55953;51.650;-0.522;2022-07-19T05:47:31;100482.20;;;21.50
68911;BMP180;55953;51.650;-0.522;2022-07-19T05:49:59;100481.80;;;21.50
68911;BMP180;55953;51.650;-0.522;2022-07-19T05:52:27;100481.40;;;21.58
68911;BMP180;55953;51.650;-0.522;2022-07-19T05:55:05;100475.40;;;21.70
68911;BMP180;55953;51.650;-0.522;2022-07-19T05:57:33;100477.40;;;21.76
68911;BMP180;55953;51.650;-0.522;2022-07-19T06:00:03;100472.20;;;21.80
68911;BMP180;55953;51.650;-0.522;2022-07-19T06:02:38;100477.40;;;21.90
68911;BMP180;55953;51.650;-0.522;2022-07-19T06:05:06;100468.00;;;22.10
68911;BMP180;55953;51.650;-0.522;2022-07-19T06:07:35;100470.20;;;22.20
68911;BMP180;55953;51.650;-0.522;2022-07-19T06:10:04;100466.20;;;22.30
68911;BMP180;55953;51.650;-0.522;2022-07-19T06:12:32;100472.00;;;22.46
68911;BMP180;55953;51.650;-0.522;2022-07-19T06:15:00;100468.80;;;22.50
68911;BMP180;55953;51.650;-0.522;2022-07-19T06:17:30;100465.40;;;22.70
68911;BMP180;55953;51.650;-0.522;2022-07-19T06:19:58;100465.20;;;22.80
68911;BMP180;55953;51.650;-0.522;2022-07-19T06:22:30;100463.20;;;22.84
68911;BMP180;55953;51.650;-0.522;2022-07-19T06:24:58;100462.00;;;22.90
68911;BMP180;55953;51.650;-0.522;2022-07-19T06:27:26;100463.00;;;23.00
68911;BMP180;55953;51.650;-0.522;2022-07-19T06:29:54;100459.00;;;23.10
68911;BMP180;55953;51.650;-0.522;2022-07-19T06:32:22;100460.20;;;23.20
68911;BMP180;55953;51.650;-0.522;2022-07-19T06:34:49;100459.80;;;23.30
68911;BMP180;55953;51.650;-0.522;2022-07-19T06:37:17;100464.80;;;23.40
68911;BMP180;55953;51.650;-0.522;2022-07-19T06:39:45;100465.00;;;23.60
68911;BMP180;55953;51.650;-0.522;2022-07-19T06:42:13;100458.40;;;23.70
68911;BMP180;55953;51.650;-0.522;2022-07-19T06:44:44;100467.80;;;23.86
68911;BMP180;55953;51.650;-0.522;2022-07-19T06:47:12;100460.80;;;24.10
68911;BMP180;55953;51.650;-0.522;2022-07-19T06:49:40;100461.60;;;24.30
68911;BMP180;55953;51.650;-0.522;2022-07-19T06:52:08;100464.40;;;24.40
68911;BMP180;55953;51.650;-0.522;2022-07-19T06:54:41;100462.00;;;24.60
68911;BMP180;55953;51.650;-0.522;2022-07-19T06:57:09;100453.80;;;24.70
68911;BMP180;55953;51.650;-0.522;2022-07-19T06:59:37;100448.20;;;24.82
68911;BMP180;55953;51.650;-0.522;2022-07-19T07:02:04;100443.20;;;25.00
68911;BMP180;55953;51.650;-0.522;2022-07-19T07:04:33;100439.60;;;25.20
68911;BMP180;55953;51.650;-0.522;2022-07-19T07:07:13;100441.00;;;25.32
68911;BMP180;55953;51.650;-0.522;2022-07-19T07:09:42;100433.20;;;25.40
68911;BMP180;55953;51.650;-0.522;2022-07-19T07:12:10;100436.00;;;25.50
68911;BMP180;55953;51.650;-0.522;2022-07-19T07:14:38;100432.60;;;25.60
68911;BMP180;55953;51.650;-0.522;2022-07-19T07:17:06;100434.40;;;25.70
68911;BMP180;55953;51.650;-0.522;2022-07-19T07:19:34;100430.20;;;25.90
68911;BMP180;55953;51.650;-0.522;2022-07-19T07:22:02;100427.40;;;26.00
68911;BMP180;55953;51.650;-0.522;2022-07-19T07:24:30;100423.60;;;26.10
68911;BMP180;55953;51.650;-0.522;2022-07-19T07:26:58;100425.40;;;26.30
68911;BMP180;55953;51.650;-0.522;2022-07-19T07:29:26;100416.20;;;26.38
68911;BMP180;55953;51.650;-0.522;2022-07-19T07:31:54;100411.00;;;26.50
68911;BMP180;55953;51.650;-0.522;2022-07-19T07:34:22;100409.60;;;26.70
68911;BMP180;55953;51.650;-0.522;2022-07-19T07:36:50;100401.80;;;26.80
68911;BMP180;55953;51.650;-0.522;2022-07-19T07:39:17;100398.00;;;27.04
68911;BMP180;55953;51.650;-0.522;2022-07-19T07:41:45;100394.80;;;27.28
68911;BMP180;55953;51.650;-0.522;2022-07-19T07:44:24;100392.60;;;27.50
68911;BMP180;55953;51.650;-0.522;2022-07-19T07:46:52;100389.40;;;27.70
68911;BMP180;55953;51.650;-0.522;2022-07-19T07:49:20;100392.40;;;27.94
68911;BMP180;55953;51.650;-0.522;2022-07-19T07:51:48;100388.80;;;28.10
68911;BMP180;55953;51.650;-0.522;2022-07-19T07:54:16;100385.20;;;28.30
68911;BMP180;55953;51.650;-0.522;2022-07-19T07:56:44;100387.60;;;28.50
68911;BMP180;55953;51.650;-0.522;2022-07-19T07:59:12;100377.60;;;28.70
68911;BMP180;55953;51.650;-0.522;2022-07-19T08:01:40;100381.80;;;28.90
68911;BMP180;55953;51.650;-0.522;2022-07-19T08:04:11;100380.00;;;29.06
68911;BMP180;55953;51.650;-0.522;2022-07-19T08:06:39;100380.00;;;29.20
68911;BMP180;55953;51.650;-0.522;2022-07-19T08:09:07;100376.60;;;29.30
68911;BMP180;55953;51.650;-0.522;2022-07-19T08:11:35;100374.40;;;29.40
68911;BMP180;55953;51.650;-0.522;2022-07-19T08:14:03;100375.80;;;29.60
68911;BMP180;55953;51.650;-0.522;2022-07-19T08:16:31;100375.20;;;29.80
68911;BMP180;55953;51.650;-0.522;2022-07-19T08:18:59;100375.80;;;30.00
68911;BMP180;55953;51.650;-0.522;2022-07-19T08:21:27;100375.00;;;30.24
68911;BMP180;55953;51.650;-0.522;2022-07-19T08:23:55;100365.80;;;30.50
68911;BMP180;55953;51.650;-0.522;2022-07-19T08:26:23;100360.60;;;30.70
68911;BMP180;55953;51.650;-0.522;2022-07-19T08:28:51;100359.80;;;30.90
68911;BMP180;55953;51.650;-0.522;2022-07-19T08:31:19;100360.40;;;31.10
68911;BMP180;55953;51.650;-0.522;2022-07-19T08:33:47;100362.80;;;31.34
68911;BMP180;55953;51.650;-0.522;2022-07-19T08:36:14;100358.60;;;31.60
68911;BMP180;55953;51.650;-0.522;2022-07-19T08:38:43;100360.20;;;31.84
68911;BMP180;55953;51.650;-0.522;2022-07-19T08:41:13;100359.00;;;32.18
68911;BMP180;55953;51.650;-0.522;2022-07-19T08:43:41;100354.00;;;32.48
68911;BMP180;55953;51.650;-0.522;2022-07-19T08:46:09;100356.00;;;32.70
68911;BMP180;55953;51.650;-0.522;2022-07-19T08:48:37;100349.20;;;33.00
68911;BMP180;55953;51.650;-0.522;2022-07-19T08:51:19;100353.20;;;33.10
68911;BMP180;55953;51.650;-0.522;2022-07-19T08:53:49;100348.00;;;33.30
68911;BMP180;55953;51.650;-0.522;2022-07-19T08:56:20;100344.00;;;33.44
68911;BMP180;55953;51.650;-0.522;2022-07-19T08:59:07;100335.00;;;33.40
68911;BMP180;55953;51.650;-0.522;2022-07-19T09:01:35;100331.40;;;33.40
68911;BMP180;55953;51.650;-0.522;2022-07-19T09:04:19;100334.20;;;33.40
68911;BMP180;55953;51.650;-0.522;2022-07-19T09:06:55;100328.80;;;33.40
68911;BMP180;55953;51.650;-0.522;2022-07-19T09:09:31;100332.00;;;33.30
68911;BMP180;55953;51.650;-0.522;2022-07-19T09:12:01;100337.00;;;33.30
68911;BMP180;55953;51.650;-0.522;2022-07-19T09:14:35;100340.00;;;33.20
68911;BMP180;55953;51.650;-0.522;2022-07-19T09:17:07;100339.00;;;33.20
68911;BMP180;55953;51.650;-0.522;2022-07-19T09:19:41;100332.00;;;33.20
68911;BMP180;55953;51.650;-0.522;2022-07-19T09:22:16;100326.40;;;33.26
68911;BMP180;55953;51.650;-0.522;2022-07-19T09:24:48;100317.00;;;33.30
68911;BMP180;55953;51.650;-0.522;2022-07-19T09:27:20;100315.20;;;33.30
68911;BMP180;55953;51.650;-0.522;2022-07-19T09:29:55;100314.40;;;33.40
68911;BMP180;55953;51.650;-0.522;2022-07-19T09:32:25;100314.20;;;33.50
68911;BMP180;55953;51.650;-0.522;2022-07-19T09:35:00;100316.60;;;33.50
68911;BMP180;55953;51.650;-0.522;2022-07-19T09:37:34;100312.60;;;33.52
68911;BMP180;55953;51.650;-0.522;2022-07-19T09:40:08;100314.00;;;33.52
68911;BMP180;55953;51.650;-0.522;2022-07-19T09:42:39;100309.60;;;33.60
68911;BMP180;55953;51.650;-0.522;2022-07-19T09:45:10;100313.00;;;33.60
68911;BMP180;55953;51.650;-0.522;2022-07-19T09:47:42;100306.20;;;33.70
68911;BMP180;55953;51.650;-0.522;2022-07-19T09:50:17;100303.80;;;33.80
68911;BMP180;55953;51.650;-0.522;2022-07-19T09:52:48;100301.60;;;33.80
68911;BMP180;55953;51.650;-0.522;2022-07-19T09:55:18;100296.60;;;33.80
68911;BMP180;55953;51.650;-0.522;2022-07-19T09:57:50;100294.80;;;33.90
68911;BMP180;55953;51.650;-0.522;2022-07-19T10:00:22;100293.00;;;33.94
68911;BMP180;55953;51.650;-0.522;2022-07-19T10:02:52;100289.80;;;34.00
68911;BMP180;55953;51.650;-0.522;2022-07-19T10:05:24;100293.00;;;34.00
68911;BMP180;55953;51.650;-0.522;2022-07-19T10:07:52;100286.60;;;34.10
68911;BMP180;55953;51.650;-0.522;2022-07-19T10:10:22;100281.20;;;34.20
68911;BMP180;55953;51.650;-0.522;2022-07-19T10:12:50;100281.20;;;34.16
68911;BMP180;55953;51.650;-0.522;2022-07-19T10:15:19;100278.40;;;34.20
68911;BMP180;55953;51.650;-0.522;2022-07-19T10:17:57;100275.00;;;34.20
68911;BMP180;55953;51.650;-0.522;2022-07-19T10:20:28;100278.80;;;34.22
68911;BMP180;55953;51.650;-0.522;2022-07-19T10:22:59;100270.20;;;34.30
68911;BMP180;55953;51.650;-0.522;2022-07-19T10:25:46;100274.60;;;34.40
68911;BMP180;55953;51.650;-0.522;2022-07-19T10:28:35;100271.20;;;34.40
68911;BMP180;55953;51.650;-0.522;2022-07-19T10:31:30;100270.60;;;34.40
68911;BMP180;55953;51.650;-0.522;2022-07-19T10:34:04;100265.60;;;34.52
68911;BMP180;55953;51.650;-0.522;2022-07-19T10:36:48;100265.00;;;34.62
68911;BMP180;55953;51.650;-0.522;2022-07-19T10:39:32;100263.00;;;34.78
68911;BMP180;55953;51.650;-0.522;2022-07-19T10:42:20;100263.20;;;34.90
68911;BMP180;55953;51.650;-0.522;2022-07-19T10:45:13;100270.00;;;35.00
68911;BMP180;55953;51.650;-0.522;2022-07-19T10:50:17;100256.80;;;35.10
68911;BMP180;55953;51.650;-0.522;2022-07-19T10:52:46;100255.00;;;35.12
68911;BMP180;55953;51.650;-0.522;2022-07-19T10:57:49;100243.80;;;35.30
68911;BMP180;55953;51.650;-0.522;2022-07-19T11:02:53;100247.40;;;35.50
68911;BMP180;55953;51.650;-0.522;2022-07-19T11:06:06;100240.00;;;35.60
68911;BMP180;55953;51.650;-0.522;2022-07-19T11:08:38;100240.00;;;35.60
68911;BMP180;55953;51.650;-0.522;2022-07-19T11:11:10;100239.40;;;35.70
68911;BMP180;55953;51.650;-0.522;2022-07-19T11:13:43;100229.40;;;35.80
68911;BMP180;55953;51.650;-0.522;2022-07-19T11:16:11;100230.60;;;35.90
68911;BMP180;55953;51.650;-0.522;2022-07-19T11:18:39;100231.80;;;35.90
68911;BMP180;55953;51.650;-0.522;2022-07-19T11:21:11;100229.20;;;36.00
68911;BMP180;55953;51.650;-0.522;2022-07-19T11:23:44;100224.40;;;36.04
68911;BMP180;55953;51.650;-0.522;2022-07-19T11:26:15;100221.00;;;36.20
68911;BMP180;55953;51.650;-0.522;2022-07-19T11:28:47;100214.60;;;36.40
68911;BMP180;55953;51.650;-0.522;2022-07-19T11:31:22;100215.60;;;36.50
68911;BMP180;55953;51.650;-0.522;2022-07-19T11:33:55;100211.00;;;36.60
68911;BMP180;55953;51.650;-0.522;2022-07-19T11:36:25;100211.40;;;36.70
68911;BMP180;55953;51.650;-0.522;2022-07-19T11:38:58;100204.40;;;36.90
68911;BMP180;55953;51.650;-0.522;2022-07-19T11:41:30;100198.80;;;37.00
68911;BMP180;55953;51.650;-0.522;2022-07-19T11:44:06;100191.40;;;37.10
68911;BMP180;55953;51.650;-0.522;2022-07-19T11:46:40;100188.60;;;37.20
68911;BMP180;55953;51.650;-0.522;2022-07-19T11:49:10;100190.40;;;37.30
68911;BMP180;55953;51.650;-0.522;2022-07-19T11:51:41;100182.40;;;37.40
68911;BMP180;55953;51.650;-0.522;2022-07-19T11:54:08;100180.00;;;37.50
68911;BMP180;55953;51.650;-0.522;2022-07-19T11:56:37;100175.60;;;37.60
68911;BMP180;55953;51.650;-0.522;2022-07-19T11:59:07;100175.20;;;37.70
68911;BMP180;55953;51.650;-0.522;2022-07-19T12:01:40;100182.80;;;37.70
68911;BMP180;55953;51.650;-0.522;2022-07-19T12:04:12;100165.00;;;37.80
68911;BMP180;55953;51.650;-0.522;2022-07-19T12:06:49;100164.60;;;37.90
68911;BMP180;55953;51.650;-0.522;2022-07-19T12:09:27;100159.60;;;38.10
68911;BMP180;55953;51.650;-0.522;2022-07-19T12:11:56;100159.20;;;38.24
68911;BMP180;55953;51.650;-0.522;2022-07-19T12:14:32;100154.60;;;38.30
68911;BMP180;55953;51.650;-0.522;2022-07-19T12:17:29;100149.80;;;38.40
68911;BMP180;55953;51.650;-0.522;2022-07-19T12:20:09;100141.00;;;38.50
68911;BMP180;55953;51.650;-0.522;2022-07-19T12:23:15;100135.40;;;38.70
68911;BMP180;55953;51.650;-0.522;2022-07-19T12:25:44;100136.00;;;38.70
68911;BMP180;55953;51.650;-0.522;2022-07-19T12:28:12;100132.60;;;38.70
68911;BMP180;55953;51.650;-0.522;2022-07-19T12:30:40;100133.40;;;38.86
68911;BMP180;55953;51.650;-0.522;2022-07-19T12:33:13;100134.60;;;38.94
68911;BMP180;55953;51.650;-0.522;2022-07-19T12:35:47;100134.20;;;39.00
68911;BMP180;55953;51.650;-0.522;2022-07-19T12:38:15;100129.80;;;39.08
68911;BMP180;55953;51.650;-0.522;2022-07-19T12:40:43;100135.80;;;39.18
68911;BMP180;55953;51.650;-0.522;2022-07-19T12:43:12;100133.20;;;39.30
68911;BMP180;55953;51.650;-0.522;2022-07-19T12:45:43;100134.60;;;39.30
68911;BMP180;55953;51.650;-0.522;2022-07-19T12:48:16;100137.20;;;39.40
68911;BMP180;55953;51.650;-0.522;2022-07-19T12:50:47;100132.40;;;39.40
68911;BMP180;55953;51.650;-0.522;2022-07-19T12:53:20;100132.40;;;39.40
68911;BMP180;55953;51.650;-0.522;2022-07-19T12:55:48;100133.80;;;39.40
68911;BMP180;55953;51.650;-0.522;2022-07-19T12:58:17;100127.80;;;39.40
68911;BMP180;55953;51.650;-0.522;2022-07-19T13:01:06;100133.00;;;39.40
68911;BMP180;55953;51.650;-0.522;2022-07-19T13:03:36;100137.40;;;39.40
68911;BMP180;55953;51.650;-0.522;2022-07-19T13:06:03;100129.00;;;39.50
68911;BMP180;55953;51.650;-0.522;2022-07-19T13:08:32;100125.00;;;39.54
68911;BMP180;55953;51.650;-0.522;2022-07-19T13:10:59;100121.40;;;39.50
68911;BMP180;55953;51.650;-0.522;2022-07-19T13:13:27;100119.80;;;39.50
68911;BMP180;55953;51.650;-0.522;2022-07-19T13:15:55;100124.20;;;39.60
68911;BMP180;55953;51.650;-0.522;2022-07-19T13:18:23;100120.20;;;39.50
68911;BMP180;55953;51.650;-0.522;2022-07-19T13:20:51;100121.80;;;39.44
68911;BMP180;55953;51.650;-0.522;2022-07-19T13:23:18;100125.00;;;39.40
68911;BMP180;55953;51.650;-0.522;2022-07-19T13:25:46;100105.40;;;39.40
68911;BMP180;55953;51.650;-0.522;2022-07-19T13:28:14;100116.20;;;39.40
68911;BMP180;55953;51.650;-0.522;2022-07-19T13:30:42;100115.80;;;39.50
68911;BMP180;55953;51.650;-0.522;2022-07-19T13:33:10;100112.60;;;39.50
68911;BMP180;55953;51.650;-0.522;2022-07-19T13:35:40;100108.60;;;39.50
68911;BMP180;55953;51.650;-0.522;2022-07-19T13:38:08;100106.20;;;39.50
68911;BMP180;55953;51.650;-0.522;2022-07-19T13:40:35;100108.00;;;39.60
68911;BMP180;55953;51.650;-0.522;2022-07-19T13:43:03;100112.00;;;39.60
68911;BMP180;55953;51.650;-0.522;2022-07-19T13:45:31;100100.60;;;39.60
68911;BMP180;55953;51.650;-0.522;2022-07-19T13:47:59;100095.20;;;39.52
68911;BMP180;55953;51.650;-0.522;2022-07-19T13:50:29;100095.40;;;39.50
68911;BMP180;55953;51.650;-0.522;2022-07-19T13:52:58;100092.60;;;39.50
68911;BMP180;55953;51.650;-0.522;2022-07-19T13:55:27;100096.60;;;39.50
68911;BMP180;55953;51.650;-0.522;2022-07-19T13:57:55;100086.60;;;39.50
68911;BMP180;55953;51.650;-0.522;2022-07-19T14:00:24;100089.20;;;39.56
68911;BMP180;55953;51.650;-0.522;2022-07-19T14:02:52;100091.80;;;39.60
68911;BMP180;55953;51.650;-0.522;2022-07-19T14:05:20;100089.60;;;39.70
68911;BMP180;55953;51.650;-0.522;2022-07-19T14:07:48;100096.00;;;39.70